createdAt,value
2022-07-29T00:01:53.722Z,36.12
2022-07-29T00:04:51.809Z,36.10
2022-07-29T00:07:53.765Z,36.40
2022-07-29T00:10:53.712Z,36.13
2022-07-29T00:13:49.090Z,36.13
2022-07-29T00:16:57.097Z,36.01
2022-07-29T00:19:54.731Z,36.22
2022-07-29T00:22:52.197Z,36.17
2022-07-29T00:25:44.173Z,36.57
2022-07-29T00:28:40.493Z,36.43
2022-07-29T00:31:39.209Z,36.36
2022-07-29T00:35:04.063Z,36.39
2022-07-29T00:38:02.307Z,36.47
2022-07-29T00:41:00.770Z,36.44
2022-07-29T00:44:08.747Z,36.58
2022-07-29T00:47:13.269Z,36.55
2022-07-29T00:50:16.068Z,36.57
2022-07-29T00:53:07.499Z,36.65
2022-07-29T00:56:03.970Z,36.80
2022-07-29T00:59:01.124Z,36.97
2022-07-29T01:02:22.203Z,36.91
2022-07-29T01:05:50.666Z,37.11
2022-07-29T01:14:51.915Z,37.03
2022-07-29T01:18:02.044Z,37.20
2022-07-29T01:21:11.641Z,37.35
2022-07-29T01:24:00.081Z,37.19
2022-07-29T01:27:03.245Z,37.41
2022-07-29T01:30:05.174Z,37.26
2022-07-29T01:32:57.548Z,37.32
2022-07-29T01:35:58.043Z,37.41
2022-07-29T01:38:53.825Z,37.45
2022-07-29T01:42:16.827Z,37.46
2022-07-29T01:45:20.840Z,37.51
2022-07-29T01:48:15.811Z,37.63
2022-07-29T01:51:08.162Z,37.43
2022-07-29T01:54:30.282Z,37.75
2022-07-29T01:57:22.682Z,37.61
2022-07-29T02:00:10.238Z,37.88
2022-07-29T02:03:01.925Z,37.68
2022-07-29T02:05:49.517Z,37.70
2022-07-29T02:08:39.659Z,37.83
2022-07-29T02:11:26.694Z,37.76
2022-07-29T02:14:15.665Z,37.67
2022-07-29T02:17:03.919Z,38.00
2022-07-29T02:19:51.174Z,37.97
2022-07-29T02:22:40.595Z,37.88
2022-07-29T02:25:37.052Z,38.12
2022-07-29T02:28:26.954Z,38.15
2022-07-29T02:31:23.739Z,38.13
2022-07-29T02:34:30.702Z,38.29
2022-07-29T02:37:19.889Z,38.23
2022-07-29T02:40:15.433Z,38.47
2022-07-29T02:43:04.892Z,38.28
2022-07-29T02:45:58.091Z,38.57
2022-07-29T02:49:14.814Z,38.46
2022-07-29T02:52:17.888Z,38.55
2022-07-29T02:55:45.622Z,38.52
2022-07-29T02:58:56.720Z,38.80
2022-07-29T03:01:49.461Z,38.78
2022-07-29T03:04:48.683Z,38.72
2022-07-29T03:07:44.110Z,38.88
2022-07-29T03:10:47.735Z,38.99
2022-07-29T03:13:47.474Z,38.65
2022-07-29T03:16:41.146Z,38.94
2022-07-29T03:19:28.613Z,39.12
2022-07-29T03:22:15.638Z,38.86
2022-07-29T03:25:13.259Z,39.27
2022-07-29T03:28:00.415Z,39.31
2022-07-29T03:33:34.825Z,39.36
2022-07-29T03:36:21.682Z,39.41
2022-07-29T03:39:09.375Z,39.41
2022-07-29T03:41:57.251Z,39.73
2022-07-29T03:44:45.638Z,39.26
2022-07-29T03:47:50.361Z,39.69
2022-07-29T03:50:41.224Z,39.49
2022-07-29T03:53:28.153Z,39.70
2022-07-29T03:56:17.532Z,39.97
2022-07-29T03:59:04.943Z,39.69
2022-07-29T04:01:51.867Z,39.88
2022-07-29T04:04:38.730Z,39.87
2022-07-29T04:07:25.701Z,40.09
2022-07-29T04:10:30.401Z,39.87
2022-07-29T04:13:20.298Z,40.11
2022-07-29T04:16:07.275Z,39.93
2022-07-29T04:18:54.168Z,40.15
2022-07-29T04:21:41.931Z,40.11
2022-07-29T04:24:31.419Z,40.17
2022-07-29T04:27:29.182Z,40.19
2022-07-29T04:30:20.363Z,40.36
2022-07-29T04:33:08.034Z,39.98
2022-07-29T04:35:57.850Z,40.40
2022-07-29T04:38:45.914Z,40.21
2022-07-29T04:41:33.719Z,40.45
2022-07-29T04:44:21.201Z,40.62
2022-07-29T04:47:09.222Z,40.50
2022-07-29T04:49:57.139Z,40.50
2022-07-29T04:52:43.963Z,40.66
2022-07-29T04:55:30.883Z,40.53
2022-07-29T04:58:17.807Z,40.82
2022-07-29T05:01:04.651Z,40.78
2022-07-29T05:03:59.881Z,40.93
2022-07-29T05:06:47.210Z,40.97
2022-07-29T05:09:34.055Z,41.08
2022-07-29T05:12:20.824Z,41.16
2022-07-29T05:15:08.200Z,41.21
2022-07-29T05:17:55.018Z,41.14
2022-07-29T05:20:41.882Z,41.21
2022-07-29T05:23:28.723Z,41.37
2022-07-29T05:26:15.504Z,41.35
2022-07-29T05:29:02.329Z,41.36
2022-07-29T05:31:49.190Z,41.38
2022-07-29T05:34:36.063Z,41.44
2022-07-29T05:37:22.964Z,41.40
2022-07-29T05:40:10.180Z,41.37
2022-07-29T05:42:57.233Z,41.53
2022-07-29T05:45:49.731Z,41.38
2022-07-29T05:48:37.248Z,41.69
2022-07-29T05:51:24.068Z,41.47
2022-07-29T05:54:11.603Z,41.69
2022-07-29T05:57:00.792Z,41.73
2022-07-29T05:59:48.163Z,41.97
2022-07-29T06:02:34.975Z,41.94
2022-07-29T06:05:22.046Z,42.51
2022-07-29T06:08:08.972Z,42.45
2022-07-29T06:10:55.869Z,42.64
2022-07-29T06:13:42.951Z,42.59
2022-07-29T06:16:30.556Z,42.96
2022-07-29T06:19:17.517Z,42.96
2022-07-29T06:22:04.965Z,42.86
2022-07-29T06:24:51.744Z,43.15
2022-07-29T06:27:38.571Z,43.16
2022-07-29T06:30:26.403Z,43.13
2022-07-29T06:33:17.922Z,43.36
2022-07-29T06:36:06.647Z,43.39
2022-07-29T06:38:54.127Z,43.53
2022-07-29T06:41:40.987Z,43.57
2022-07-29T06:44:27.761Z,43.66
2022-07-29T06:47:14.856Z,43.87
2022-07-29T06:50:01.667Z,43.97
2022-07-29T06:52:49.227Z,44.01
2022-07-29T06:55:37.888Z,43.98
2022-07-29T06:58:24.880Z,44.34
2022-07-29T07:01:11.770Z,44.08
2022-07-29T07:04:00.718Z,44.19
2022-07-29T07:06:47.530Z,43.86
2022-07-29T07:09:40.138Z,44.24
2022-07-29T07:12:27.702Z,44.11
2022-07-29T07:15:14.555Z,44.26
2022-07-29T07:18:01.403Z,44.37
2022-07-29T07:20:48.597Z,44.38
2022-07-29T07:23:35.394Z,44.31
2022-07-29T07:26:22.419Z,44.30
2022-07-29T07:29:09.240Z,44.00
2022-07-29T07:32:00.643Z,44.31
2022-07-29T07:34:48.060Z,44.47
2022-07-29T07:37:35.774Z,44.61
2022-07-29T07:40:22.613Z,44.66
2022-07-29T07:43:09.474Z,44.98
2022-07-29T07:45:56.373Z,45.05
2022-07-29T07:48:43.224Z,45.41
2022-07-29T07:51:30.213Z,45.55
2022-07-29T07:54:17.513Z,45.20
2022-07-29T07:57:04.697Z,45.25
2022-07-29T07:59:51.518Z,44.92
2022-07-29T08:02:38.953Z,45.25
2022-07-29T08:05:25.867Z,45.27
2022-07-29T08:08:12.659Z,45.14
2022-07-29T08:11:02.132Z,45.11
2022-07-29T08:13:53.061Z,44.86
2022-07-29T08:16:40.858Z,45.05
2022-07-29T08:19:28.067Z,44.82
2022-07-29T08:22:15.181Z,44.68
2022-07-29T08:25:02.047Z,44.60
2022-07-29T08:27:48.823Z,44.66
2022-07-29T08:30:36.096Z,44.49
2022-07-29T08:33:22.948Z,44.67
2022-07-29T08:36:10.014Z,44.48
2022-07-29T08:38:57.068Z,44.35
2022-07-29T08:41:56.868Z,44.23
2022-07-29T08:44:45.664Z,44.46
2022-07-29T08:47:32.446Z,44.44
2022-07-29T08:50:19.256Z,44.19
2022-07-29T08:53:07.562Z,44.46
2022-07-29T08:55:54.874Z,44.58
2022-07-29T08:58:42.184Z,44.44
2022-07-29T09:01:35.546Z,44.62
2022-07-29T09:04:25.394Z,44.59
2022-07-29T09:07:15.750Z,44.52
2022-07-29T09:10:03.262Z,44.65
2022-07-29T09:12:50.225Z,44.68
2022-07-29T09:15:37.086Z,44.60
2022-07-29T09:18:41.654Z,44.94
2022-07-29T09:21:59.819Z,44.81
2022-07-29T09:24:48.223Z,44.82
2022-07-29T09:27:35.315Z,44.69
2022-07-29T09:30:25.615Z,44.62
2022-07-29T09:33:19.122Z,44.76
2022-07-29T09:36:08.197Z,44.92
2022-07-29T09:39:01.474Z,45.04
2022-07-29T09:41:50.383Z,44.82
2022-07-29T09:44:51.839Z,45.53
2022-07-29T09:47:45.987Z,45.17
2022-07-29T09:50:43.295Z,45.17
2022-07-29T09:53:33.726Z,45.00
2022-07-29T09:56:20.550Z,44.97
2022-07-29T09:59:08.184Z,44.90
2022-07-29T10:01:55.519Z,44.82
2022-07-29T10:04:43.547Z,44.59
2022-07-29T10:07:53.927Z,44.75
2022-07-29T10:10:42.973Z,44.42
2022-07-29T10:13:29.773Z,44.28
2022-07-29T10:16:17.457Z,44.23
2022-07-29T10:19:06.283Z,44.13
2022-07-29T10:21:58.106Z,44.22
2022-07-29T10:24:47.775Z,43.93
2022-07-29T10:27:36.230Z,43.96
2022-07-29T10:30:23.616Z,44.30
2022-07-29T10:33:49.432Z,44.18
2022-07-29T10:36:58.417Z,43.71
2022-07-29T10:40:01.964Z,43.43
2022-07-29T10:42:50.600Z,43.06
2022-07-29T10:45:38.335Z,42.93
2022-07-29T10:48:28.050Z,42.76
2022-07-29T10:51:19.828Z,42.65
2022-07-29T10:54:15.104Z,42.59
2022-07-29T10:57:53.324Z,42.42
2022-07-29T11:00:34.127Z,42.27
2022-07-29T11:03:49.419Z,42.07
2022-07-29T11:06:59.806Z,42.27
2022-07-29T11:10:12.684Z,41.96
2022-07-29T11:13:00.758Z,41.90
2022-07-29T11:15:59.847Z,41.83
2022-07-29T11:19:13.164Z,41.79
2022-07-29T11:22:00.678Z,41.82
2022-07-29T11:25:17.063Z,41.61
2022-07-29T11:28:17.509Z,41.37
2022-07-29T11:31:10.910Z,41.48
2022-07-29T11:34:01.236Z,41.37
2022-07-29T11:37:10.519Z,41.38
2022-07-29T11:40:02.367Z,41.25
2022-07-29T11:45:59.647Z,40.82
2022-07-29T11:48:46.734Z,40.65
2022-07-29T11:51:48.619Z,40.56
2022-07-29T11:54:57.407Z,40.75
2022-07-29T11:58:10.907Z,40.37
2022-07-29T12:00:58.576Z,40.39
2022-07-29T12:04:03.877Z,39.87
2022-07-29T12:06:54.907Z,40.06
2022-07-29T12:09:51.090Z,39.63
2022-07-29T12:12:39.794Z,39.66
2022-07-29T12:15:39.190Z,39.88
2022-07-29T12:18:32.703Z,39.43
2022-07-29T12:21:19.519Z,39.16
2022-07-29T12:24:12.921Z,38.87
2022-07-29T12:27:02.346Z,38.73
2022-07-29T12:30:03.777Z,38.58
2022-07-29T12:32:53.427Z,38.31
2022-07-29T12:35:43.693Z,38.29
2022-07-29T12:38:30.640Z,38.13
2022-07-29T12:41:17.623Z,37.98
2022-07-29T12:44:04.973Z,38.05
2022-07-29T12:47:04.606Z,38.14
2022-07-29T12:49:54.394Z,37.98
2022-07-29T12:52:41.655Z,38.11
2022-07-29T12:55:49.927Z,38.15
2022-07-29T12:58:39.855Z,38.70
2022-07-29T13:01:28.220Z,38.90
2022-07-29T13:04:31.858Z,39.64
2022-07-29T13:07:56.902Z,39.62
2022-07-29T13:10:36.517Z,39.80
2022-07-29T13:13:23.430Z,40.24
2022-07-29T13:16:10.506Z,40.07
2022-07-29T13:19:08.842Z,40.27
2022-07-29T13:21:55.835Z,40.22
2022-07-29T13:24:47.629Z,40.84
2022-07-29T13:27:37.353Z,41.61
2022-07-29T13:30:24.653Z,41.55
2022-07-29T13:33:11.784Z,41.81
2022-07-29T13:35:58.564Z,42.09
2022-07-29T13:38:45.656Z,42.27
2022-07-29T13:41:32.494Z,42.25
2022-07-29T13:44:19.300Z,42.64
2022-07-29T13:47:07.106Z,42.61
2022-07-29T13:49:54.186Z,43.00
2022-07-29T13:52:41.001Z,42.92
2022-07-29T13:55:27.784Z,43.02
2022-07-29T13:58:14.926Z,43.27
2022-07-29T14:01:01.981Z,43.63
2022-07-29T14:03:48.893Z,44.28
2022-07-29T14:06:35.706Z,44.41
2022-07-29T14:09:22.540Z,44.49
2022-07-29T14:12:09.930Z,44.78
2022-07-29T14:14:56.753Z,44.99
2022-07-29T14:17:43.552Z,44.91
2022-07-29T14:20:30.850Z,45.05
2022-07-29T14:23:18.208Z,45.08
2022-07-29T14:26:08.722Z,45.10
2022-07-29T14:29:02.328Z,45.11
2022-07-29T14:31:49.289Z,44.97
2022-07-29T14:34:37.068Z,45.24
2022-07-29T14:37:23.885Z,45.46
2022-07-29T14:40:13.249Z,45.27
2022-07-29T14:43:00.047Z,45.30
2022-07-29T14:45:46.872Z,45.37
2022-07-29T14:48:33.703Z,45.34
2022-07-29T14:51:20.476Z,45.44
2022-07-29T14:54:07.409Z,45.36
2022-07-29T14:56:57.726Z,45.29
2022-07-29T14:59:44.509Z,45.08
2022-07-29T15:02:52.133Z,45.13
2022-07-29T15:05:38.140Z,44.97
2022-07-29T15:08:26.209Z,45.12
2022-07-29T15:11:12.987Z,44.73
2022-07-29T15:13:59.792Z,44.39
2022-07-29T15:16:48.028Z,44.33
2022-07-29T15:19:35.262Z,44.24
2022-07-29T15:22:22.060Z,44.15
2022-07-29T15:25:08.922Z,43.87
2022-07-29T15:28:00.799Z,43.56
2022-07-29T15:30:48.573Z,43.68
2022-07-29T15:33:35.380Z,43.68
2022-07-29T15:36:50.847Z,43.24
2022-07-29T15:39:29.016Z,43.16
2022-07-29T15:42:15.839Z,42.85
2022-07-29T15:45:05.885Z,42.75
2022-07-29T15:47:52.730Z,42.61
2022-07-29T15:50:40.010Z,42.48
2022-07-29T15:53:26.861Z,42.77
2022-07-29T15:56:13.624Z,42.55
2022-07-29T15:59:00.947Z,42.33
2022-07-29T16:01:48.334Z,42.38
2022-07-29T16:04:35.152Z,42.88
2022-07-29T16:07:22.102Z,42.48
2022-07-29T16:10:09.288Z,42.62
2022-07-29T16:12:56.086Z,42.68
2022-07-29T16:15:42.901Z,42.54
2022-07-29T16:18:30.415Z,42.61
2022-07-29T16:21:17.534Z,42.74
2022-07-29T16:24:05.660Z,42.52
2022-07-29T16:26:52.990Z,42.68
2022-07-29T16:29:39.884Z,42.85
2022-07-29T16:32:26.694Z,43.20
2022-07-29T16:35:13.529Z,43.13
2022-07-29T16:38:00.340Z,43.34
2022-07-29T16:40:47.341Z,43.40
2022-07-29T16:43:34.309Z,43.52
2022-07-29T16:46:21.540Z,43.60
2022-07-29T16:49:11.198Z,43.60
2022-07-29T16:51:58.039Z,43.75
2022-07-29T16:54:46.179Z,44.42
2022-07-29T16:57:33.004Z,44.18
2022-07-29T17:00:21.074Z,44.31
2022-07-29T17:03:07.885Z,44.33
2022-07-29T17:05:54.819Z,44.21
2022-07-29T17:08:41.636Z,44.15
2022-07-29T17:11:52.426Z,44.30
2022-07-29T17:14:35.504Z,44.44
2022-07-29T17:17:39.350Z,44.49
2022-07-29T17:20:29.246Z,44.91
2022-07-29T17:23:16.199Z,45.10
2022-07-29T17:26:03.481Z,45.09
2022-07-29T17:28:50.464Z,45.02
2022-07-29T17:31:37.778Z,45.25
2022-07-29T17:34:24.775Z,45.37
2022-07-29T17:37:12.482Z,45.57
2022-07-29T17:40:00.499Z,45.37
2022-07-29T17:42:47.541Z,45.57
2022-07-29T17:45:50.430Z,45.75
2022-07-29T17:48:37.539Z,45.92
2022-07-29T17:51:26.945Z,46.09
2022-07-29T17:54:35.217Z,46.77
2022-07-29T17:57:22.014Z,46.43
2022-07-29T18:00:09.503Z,46.38
2022-07-29T18:02:59.230Z,46.60
2022-07-29T18:05:52.302Z,46.79
2022-07-29T18:08:39.826Z,46.93
2022-07-29T18:11:26.626Z,46.96
2022-07-29T18:14:13.478Z,47.07
2022-07-29T18:17:00.558Z,47.08
2022-07-29T18:19:48.218Z,47.22
2022-07-29T18:22:35.005Z,47.27
2022-07-29T18:25:22.329Z,47.52
2022-07-29T18:28:09.221Z,47.46
2022-07-29T18:30:58.393Z,47.66
2022-07-29T18:33:45.202Z,47.75
2022-07-29T18:36:31.996Z,47.97
2022-07-29T18:39:20.625Z,48.24
2022-07-29T18:42:08.029Z,48.21
2022-07-29T18:44:54.869Z,48.16
2022-07-29T18:47:41.721Z,48.30
2022-07-29T18:50:37.622Z,48.54
2022-07-29T18:53:26.739Z,48.93
2022-07-29T18:56:13.656Z,48.98
2022-07-29T18:59:01.641Z,48.82
2022-07-29T19:01:51.086Z,49.07
2022-07-29T19:04:39.047Z,49.23
2022-07-29T19:07:26.873Z,49.20
2022-07-29T19:10:22.028Z,49.25
2022-07-29T19:13:09.823Z,49.32
2022-07-29T19:16:07.950Z,49.45
2022-07-29T19:18:55.800Z,49.26
2022-07-29T19:21:49.365Z,49.32
2022-07-29T19:24:42.036Z,49.38
2022-07-29T19:27:49.679Z,50.31
2022-07-29T19:30:39.170Z,49.84
2022-07-29T19:33:30.258Z,49.94
2022-07-29T19:36:26.815Z,50.21
2022-07-29T20:48:10.630Z,52.58
2022-07-29T20:54:26.438Z,52.49
2022-07-29T21:02:26.117Z,52.58
2022-07-29T21:10:22.744Z,53.00
2022-07-29T21:13:19.697Z,52.86
2022-07-29T21:16:44.648Z,52.80
2022-07-29T21:31:08.065Z,52.83
2022-07-29T21:38:54.202Z,53.39
2022-07-29T21:44:04.048Z,53.33
2022-07-29T21:46:09.338Z,53.79
2022-07-29T21:49:13.814Z,53.23
2022-07-29T21:52:11.316Z,53.44
2022-07-29T21:55:33.246Z,53.77
2022-07-29T21:58:55.683Z,53.89
2022-07-29T22:01:54.400Z,53.86
2022-07-29T22:08:27.035Z,54.30
2022-07-29T22:15:24.595Z,54.50
2022-07-29T22:22:50.644Z,54.87
2022-07-29T22:29:57.620Z,55.19
2022-07-29T23:15:55.949Z,56.58
2022-07-29T23:27:00.036Z,56.08
2022-07-29T23:45:09.304Z,56.18
2022-07-29T23:55:36.430Z,56.68
